sensor_id;sensor_type;location;lat;lon;timestamp;pressure;altitude;pressure_sealevel;temperature;humidity
75359;BME280;64046;51.978;5.934;2022-11-04T00:01:30;99897.31;;;16.49;100.00
75359;BME280;64046;51.978;5.934;2022-11-04T00:04:00;99897.94;;;16.41;100.00
75359;BME280;64046;51.978;5.934;2022-11-04T00:06:29;99900.31;;;16.44;100.00
75359;BME280;64046;51.978;5.934;2022-11-04T00:09:01;99906.53;;;16.55;100.00
75359;BME280;64046;51.978;5.934;2022-11-04T00:11:31;99918.25;;;16.41;100.00
75359;BME280;64046;51.978;5.934;2022-11-04T00:14:13;99920.97;;;16.51;100.00
75359;BME280;64046;51.978;5.934;2022-11-04T00:16:43;99926.53;;;16.48;100.00
75359;BME280;64046;51.978;5.934;2022-11-04T00:19:24;99923.97;;;16.46;100.00
75359;BME280;64046;51.978;5.934;2022-11-04T00:21:54;99925.66;;;16.47;100.00
75359;BME280;64046;51.978;5.934;2022-11-04T00:24:38;99939.34;;;16.52;100.00
75359;BME280;64046;51.978;5.934;2022-11-04T00:27:20;99945.66;;;16.40;100.00
75359;BME280;64046;51.978;5.934;2022-11-04T00:30:03;99942.56;;;16.35;100.00
75359;BME280;64046;51.978;5.934;2022-11-04T00:32:33;99939.44;;;16.30;100.00
75359;BME280;64046;51.978;5.934;2022-11-04T00:35:15;99952.06;;;16.26;100.00
75359;BME280;64046;51.978;5.934;2022-11-04T00:37:44;99948.59;;;16.25;100.00
75359;BME280;64046;51.978;5.934;2022-11-04T00:40:16;99955.78;;;16.35;100.00
75359;BME280;64046;51.978;5.934;2022-11-04T00:42:45;99952.34;;;16.12;100.00
75359;BME280;64046;51.978;5.934;2022-11-04T00:45:14;99958.25;;;16.15;100.00
75359;BME280;64046;51.978;5.934;2022-11-04T00:47:44;99947.81;;;16.14;100.00
75359;BME280;64046;51.978;5.934;2022-11-04T00:50:13;99963.09;;;15.99;100.00
75359;BME280;64046;51.978;5.934;2022-11-04T00:52:42;99958.94;;;15.85;100.00
75359;BME280;64046;51.978;5.934;2022-11-04T00:55:11;99963.94;;;15.77;100.00
75359;BME280;64046;51.978;5.934;2022-11-04T00:57:43;99951.47;;;15.90;100.00
75359;BME280;64046;51.978;5.934;2022-11-04T01:00:13;99965.75;;;15.87;100.00
75359;BME280;64046;51.978;5.934;2022-11-04T01:02:43;99964.06;;;15.75;100.00
75359;BME280;64046;51.978;5.934;2022-11-04T01:05:12;99970.72;;;15.81;100.00
75359;BME280;64046;51.978;5.934;2022-11-04T01:07:41;99970.59;;;15.82;100.00
75359;BME280;64046;51.978;5.934;2022-11-04T01:10:10;99976.81;;;15.81;100.00
75359;BME280;64046;51.978;5.934;2022-11-04T01:12:39;99973.34;;;15.81;100.00
75359;BME280;64046;51.978;5.934;2022-11-04T01:15:11;99974.88;;;15.95;100.00
75359;BME280;64046;51.978;5.934;2022-11-04T01:17:40;99982.84;;;15.83;100.00
75359;BME280;64046;51.978;5.934;2022-11-04T01:20:10;99984.50;;;15.84;100.00
75359;BME280;64046;51.978;5.934;2022-11-04T01:22:40;99996.16;;;15.82;100.00
75359;BME280;64046;51.978;5.934;2022-11-04T01:25:09;100008.25;;;15.73;100.00
75359;BME280;64046;51.978;5.934;2022-11-04T01:27:38;100020.63;;;15.61;100.00
75359;BME280;64046;51.978;5.934;2022-11-04T01:30:12;100012.31;;;15.77;100.00
75359;BME280;64046;51.978;5.934;2022-11-04T01:32:41;100023.03;;;15.64;100.00
75359;BME280;64046;51.978;5.934;2022-11-04T01:35:10;100025.91;;;15.61;100.00
75359;BME280;64046;51.978;5.934;2022-11-04T01:37:39;100036.00;;;15.56;100.00
75359;BME280;64046;51.978;5.934;2022-11-04T01:40:09;100035.25;;;15.54;100.00
75359;BME280;64046;51.978;5.934;2022-11-04T01:42:38;100034.44;;;15.42;100.00
75359;BME280;64046;51.978;5.934;2022-11-04T01:45:14;100033.13;;;15.59;100.00
75359;BME280;64046;51.978;5.934;2022-11-04T01:47:47;100034.31;;;15.55;100.00
75359;BME280;64046;51.978;5.934;2022-11-04T01:50:20;100036.84;;;15.56;100.00
75359;BME280;64046;51.978;5.934;2022-11-04T01:52:53;100040.31;;;15.57;100.00
75359;BME280;64046;51.978;5.934;2022-11-04T01:55:25;100034.06;;;15.58;100.00
75359;BME280;64046;51.978;5.934;2022-11-04T01:57:59;100046.22;;;15.61;100.00
75359;BME280;64046;51.978;5.934;2022-11-04T02:00:31;100049.56;;;15.63;100.00
75359;BME280;64046;51.978;5.934;2022-11-04T02:03:05;100061.31;;;15.58;100.00
75359;BME280;64046;51.978;5.934;2022-11-04T02:05:36;100049.19;;;15.45;100.00
75359;BME280;64046;51.978;5.934;2022-11-04T02:08:07;100053.16;;;15.50;100.00
75359;BME280;64046;51.978;5.934;2022-11-04T02:10:39;100059.78;;;15.56;100.00
75359;BME280;64046;51.978;5.934;2022-11-04T02:13:08;100072.22;;;15.43;100.00
75359;BME280;64046;51.978;5.934;2022-11-04T02:15:42;100082.81;;;15.65;100.00
75359;BME280;64046;51.978;5.934;2022-11-04T02:18:20;100075.59;;;15.67;100.00
75359;BME280;64046;51.978;5.934;2022-11-04T02:27:19;100086.19;;;15.79;100.00
75359;BME280;64046;51.978;5.934;2022-11-04T02:30:04;100086.41;;;15.75;100.00
75359;BME280;64046;51.978;5.934;2022-11-04T02:32:41;100084.63;;;15.65;100.00
75359;BME280;64046;51.978;5.934;2022-11-04T02:35:20;100094.31;;;15.64;100.00
75359;BME280;64046;51.978;5.934;2022-11-04T02:37:55;100094.69;;;15.60;100.00
75359;BME280;64046;51.978;5.934;2022-11-04T02:40:31;100095.41;;;15.62;100.00
75359;BME280;64046;51.978;5.934;2022-11-04T02:43:08;100095.31;;;15.63;100.00
75359;BME280;64046;51.978;5.934;2022-11-04T02:45:45;100094.31;;;15.64;100.00
75359;BME280;64046;51.978;5.934;2022-11-04T02:48:21;100096.97;;;15.64;100.00
75359;BME280;64046;51.978;5.934;2022-11-04T02:51:00;100101.31;;;15.65;100.00
75359;BME280;64046;51.978;5.934;2022-11-04T02:53:37;100100.47;;;15.65;100.00
75359;BME280;64046;51.978;5.934;2022-11-04T02:56:10;100113.78;;;15.63;100.00
75359;BME280;64046;51.978;5.934;2022-11-04T02:58:44;100102.25;;;15.64;100.00
75359;BME280;64046;51.978;5.934;2022-11-04T03:01:17;100096.03;;;15.65;100.00
75359;BME280;64046;51.978;5.934;2022-11-04T03:03:57;100113.06;;;15.61;100.00
75359;BME280;64046;51.978;5.934;2022-11-04T03:06:30;100119.38;;;15.47;100.00
75359;BME280;64046;51.978;5.934;2022-11-04T03:09:00;100121.56;;;15.42;100.00
75359;BME280;64046;51.978;5.934;2022-11-04T03:11:30;100141.94;;;15.40;100.00
75359;BME280;64046;51.978;5.934;2022-11-04T03:14:03;100128.88;;;15.50;100.00
75359;BME280;64046;51.978;5.934;2022-11-04T03:16:39;100143.41;;;15.55;100.00
75359;BME280;64046;51.978;5.934;2022-11-04T03:19:13;100143.28;;;15.57;100.00
75359;BME280;64046;51.978;5.934;2022-11-04T03:21:48;100148.22;;;15.62;100.00
75359;BME280;64046;51.978;5.934;2022-11-04T03:24:19;100151.06;;;15.47;100.00
75359;BME280;64046;51.978;5.934;2022-11-04T03:26:52;100148.84;;;15.65;100.00
75359;BME280;64046;51.978;5.934;2022-11-04T03:29:27;100163.50;;;15.69;100.00
75359;BME280;64046;51.978;5.934;2022-11-04T03:32:06;100169.03;;;15.78;100.00
75359;BME280;64046;51.978;5.934;2022-11-04T03:34:38;100165.50;;;15.54;100.00
75359;BME280;64046;51.978;5.934;2022-11-04T03:37:07;100164.41;;;15.57;100.00
75359;BME280;64046;51.978;5.934;2022-11-04T03:39:37;100168.03;;;15.56;100.00
75359;BME280;64046;51.978;5.934;2022-11-04T03:42:08;100169.50;;;15.71;100.00
75359;BME280;64046;51.978;5.934;2022-11-04T03:44:49;100166.94;;;15.58;100.00
75359;BME280;64046;51.978;5.934;2022-11-04T03:47:22;100170.91;;;15.64;100.00
75359;BME280;64046;51.978;5.934;2022-11-04T03:49:58;100172.72;;;15.64;100.00
75359;BME280;64046;51.978;5.934;2022-11-04T03:52:28;100179.03;;;15.50;100.00
75359;BME280;64046;51.978;5.934;2022-11-04T03:54:58;100182.53;;;15.50;100.00
75359;BME280;64046;51.978;5.934;2022-11-04T03:57:37;100184.50;;;15.71;100.00
75359;BME280;64046;51.978;5.934;2022-11-04T04:00:11;100185.94;;;15.64;100.00
75359;BME280;64046;51.978;5.934;2022-11-04T04:03:01;100177.28;;;15.73;100.00
75359;BME280;64046;51.978;5.934;2022-11-04T04:05:37;100185.09;;;15.63;100.00
75359;BME280;64046;51.978;5.934;2022-11-04T04:08:14;100188.06;;;15.58;100.00
75359;BME280;64046;51.978;5.934;2022-11-04T04:10:51;100189.72;;;15.48;100.00
75359;BME280;64046;51.978;5.934;2022-11-04T04:13:34;100195.41;;;15.55;100.00
75359;BME280;64046;51.978;5.934;2022-11-04T04:16:09;100197.66;;;15.48;100.00
75359;BME280;64046;51.978;5.934;2022-11-04T04:18:45;100206.31;;;15.50;100.00
75359;BME280;64046;51.978;5.934;2022-11-04T04:21:18;100203.41;;;15.42;100.00
75359;BME280;64046;51.978;5.934;2022-11-04T04:23:50;100206.16;;;15.40;100.00
75359;BME280;64046;51.978;5.934;2022-11-04T04:26:34;100209.03;;;15.37;100.00
75359;BME280;64046;51.978;5.934;2022-11-04T04:29:18;100208.41;;;15.34;100.00
75359;BME280;64046;51.978;5.934;2022-11-04T04:31:48;100209.97;;;15.36;100.00
75359;BME280;64046;51.978;5.934;2022-11-04T04:34:26;100209.50;;;15.43;100.00
75359;BME280;64046;51.978;5.934;2022-11-04T04:37:00;100205.16;;;15.42;100.00
75359;BME280;64046;51.978;5.934;2022-11-04T04:39:35;100217.06;;;15.47;100.00
75359;BME280;64046;51.978;5.934;2022-11-04T04:42:19;100221.25;;;15.38;100.00
75359;BME280;64046;51.978;5.934;2022-11-04T04:45:03;100225.22;;;15.44;100.00
75359;BME280;64046;51.978;5.934;2022-11-04T04:47:37;100224.78;;;15.50;100.00
75359;BME280;64046;51.978;5.934;2022-11-04T04:50:10;100230.66;;;15.54;100.00
75359;BME280;64046;51.978;5.934;2022-11-04T04:52:43;100233.66;;;15.49;100.00
75359;BME280;64046;51.978;5.934;2022-11-04T04:55:13;100229.78;;;15.42;100.00
75359;BME280;64046;51.978;5.934;2022-11-04T04:57:43;100236.47;;;15.35;100.00
75359;BME280;64046;51.978;5.934;2022-11-04T05:00:14;100230.06;;;15.50;100.00
75359;BME280;64046;51.978;5.934;2022-11-04T05:02:43;100225.59;;;15.39;100.00
75359;BME280;64046;51.978;5.934;2022-11-04T05:05:16;100231.31;;;15.57;100.00
75359;BME280;64046;51.978;5.934;2022-11-04T05:07:46;100230.25;;;15.36;100.00
75359;BME280;64046;51.978;5.934;2022-11-04T05:10:16;100229.28;;;15.37;100.00
75359;BME280;64046;51.978;5.934;2022-11-04T05:12:45;100228.41;;;15.25;100.00
75359;BME280;64046;51.978;5.934;2022-11-04T05:15:27;100222.88;;;15.28;100.00
75359;BME280;64046;51.978;5.934;2022-11-04T05:17:58;100221.94;;;15.29;100.00
75359;BME280;64046;51.978;5.934;2022-11-04T05:20:30;100221.59;;;15.34;100.00
75359;BME280;64046;51.978;5.934;2022-11-04T05:22:59;100217.78;;;15.14;100.00
75359;BME280;64046;51.978;5.934;2022-11-04T05:25:28;100225.94;;;15.11;100.00
75359;BME280;64046;51.978;5.934;2022-11-04T05:27:59;100239.84;;;15.13;100.00
75359;BME280;64046;51.978;5.934;2022-11-04T05:30:28;100239.88;;;15.00;100.00
75359;BME280;64046;51.978;5.934;2022-11-04T05:32:57;100244.66;;;14.95;100.00
75359;BME280;64046;51.978;5.934;2022-11-04T05:35:26;100256.63;;;14.87;100.00
75359;BME280;64046;51.978;5.934;2022-11-04T05:37:58;100257.53;;;14.99;100.00
75359;BME280;64046;51.978;5.934;2022-11-04T05:40:27;100260.75;;;14.79;100.00
75359;BME280;64046;51.978;5.934;2022-11-04T05:42:57;100265.06;;;14.80;100.00
75359;BME280;64046;51.978;5.934;2022-11-04T05:45:27;100267.50;;;14.83;100.00
75359;BME280;64046;51.978;5.934;2022-11-04T05:47:58;100265.59;;;14.85;100.00
75359;BME280;64046;51.978;5.934;2022-11-04T05:50:28;100270.13;;;14.83;100.00
75359;BME280;64046;51.978;5.934;2022-11-04T05:53:00;100266.84;;;14.92;100.00
75359;BME280;64046;51.978;5.934;2022-11-04T05:55:29;100274.25;;;14.74;100.00
75359;BME280;64046;51.978;5.934;2022-11-04T05:57:58;100276.16;;;14.72;100.00
75359;BME280;64046;51.978;5.934;2022-11-04T06:00:28;100283.13;;;14.73;100.00
75359;BME280;64046;51.978;5.934;2022-11-04T06:02:57;100284.78;;;14.74;100.00
75359;BME280;64046;51.978;5.934;2022-11-04T06:05:27;100288.19;;;14.76;100.00
75359;BME280;64046;51.978;5.934;2022-11-04T06:07:56;100292.22;;;14.69;100.00
75359;BME280;64046;51.978;5.934;2022-11-04T06:10:27;100298.50;;;14.79;100.00
75359;BME280;64046;51.978;5.934;2022-11-04T06:12:56;100305.97;;;14.60;100.00
75359;BME280;64046;51.978;5.934;2022-11-04T06:15:26;100308.94;;;14.55;100.00
75359;BME280;64046;51.978;5.934;2022-11-04T06:17:55;100311.38;;;14.58;100.00
75359;BME280;64046;51.978;5.934;2022-11-04T06:20:24;100311.47;;;14.57;100.00
75359;BME280;64046;51.978;5.934;2022-11-04T06:22:53;100320.69;;;14.64;100.00
75359;BME280;64046;51.978;5.934;2022-11-04T06:25:22;100319.84;;;14.63;100.00
75359;BME280;64046;51.978;5.934;2022-11-04T06:27:54;100324.16;;;14.77;100.00
75359;BME280;64046;51.978;5.934;2022-11-04T06:30:25;100322.47;;;14.76;100.00
75359;BME280;64046;51.978;5.934;2022-11-04T06:32:54;100328.47;;;14.65;100.00
75359;BME280;64046;51.978;5.934;2022-11-04T06:35:23;100328.47;;;14.65;100.00
75359;BME280;64046;51.978;5.934;2022-11-04T06:37:53;100325.09;;;14.76;100.00
75359;BME280;64046;51.978;5.934;2022-11-04T06:40:23;100332.09;;;14.64;100.00
75359;BME280;64046;51.978;5.934;2022-11-04T06:42:54;100332.16;;;14.76;100.00
75359;BME280;64046;51.978;5.934;2022-11-04T06:45:23;100332.56;;;14.57;100.00
75359;BME280;64046;51.978;5.934;2022-11-04T06:47:52;100336.13;;;14.56;100.00
75359;BME280;64046;51.978;5.934;2022-11-04T06:50:22;100327.41;;;14.55;100.00
75359;BME280;64046;51.978;5.934;2022-11-04T06:52:51;100335.09;;;14.58;100.00
75359;BME280;64046;51.978;5.934;2022-11-04T06:55:20;100340.38;;;14.58;100.00
75359;BME280;64046;51.978;5.934;2022-11-04T06:57:49;100336.06;;;14.57;100.00
75359;BME280;64046;51.978;5.934;2022-11-04T07:00:21;100347.97;;;14.76;100.00
75359;BME280;64046;51.978;5.934;2022-11-04T07:02:50;100351.59;;;14.62;100.00
75359;BME280;64046;51.978;5.934;2022-11-04T07:05:20;100354.31;;;14.60;100.00
75359;BME280;64046;51.978;5.934;2022-11-04T07:07:49;100358.00;;;14.58;100.00
75359;BME280;64046;51.978;5.934;2022-11-04T07:10:18;100365.06;;;14.57;100.00
75359;BME280;64046;51.978;5.934;2022-11-04T07:12:47;100361.47;;;14.58;100.00
75359;BME280;64046;51.978;5.934;2022-11-04T07:15:16;100356.50;;;14.53;100.00
75359;BME280;64046;51.978;5.934;2022-11-04T07:17:48;100362.47;;;14.70;100.00
75359;BME280;64046;51.978;5.934;2022-11-04T07:20:17;100359.88;;;14.56;100.00
75359;BME280;64046;51.978;5.934;2022-11-04T07:22:46;100362.31;;;14.59;100.00
75359;BME280;64046;51.978;5.934;2022-11-04T07:25:16;100365.63;;;14.62;100.00
75359;BME280;64046;51.978;5.934;2022-11-04T07:27:45;100363.06;;;14.61;100.00
75359;BME280;64046;51.978;5.934;2022-11-04T07:30:14;100366.38;;;14.64;100.00
75359;BME280;64046;51.978;5.934;2022-11-04T07:32:44;100369.63;;;14.68;100.00
75359;BME280;64046;51.978;5.934;2022-11-04T07:35:16;100368.69;;;14.82;100.00
75359;BME280;64046;51.978;5.934;2022-11-04T07:37:45;100379.22;;;14.69;100.00
75359;BME280;64046;51.978;5.934;2022-11-04T07:40:14;100373.53;;;14.62;100.00
75359;BME280;64046;51.978;5.934;2022-11-04T07:42:43;100376.22;;;14.61;100.00
75359;BME280;64046;51.978;5.934;2022-11-04T07:45:16;100382.19;;;14.64;100.00
75359;BME280;64046;51.978;5.934;2022-11-04T07:47:46;100381.31;;;14.64;100.00
75359;BME280;64046;51.978;5.934;2022-11-04T07:50:18;100384.06;;;14.75;100.00
75359;BME280;64046;51.978;5.934;2022-11-04T07:52:47;100374.03;;;14.54;100.00
75359;BME280;64046;51.978;5.934;2022-11-04T07:55:16;100381.72;;;14.58;100.00
75359;BME280;64046;51.978;5.934;2022-11-04T07:57:46;100382.19;;;14.64;100.00
75359;BME280;64046;51.978;5.934;2022-11-04T08:00:16;100390.63;;;14.69;100.00
75359;BME280;64046;51.978;5.934;2022-11-04T08:02:46;100405.06;;;14.64;100.00
75359;BME280;64046;51.978;5.934;2022-11-04T08:05:18;100398.75;;;14.79;100.00
75359;BME280;64046;51.978;5.934;2022-11-04T08:07:47;100401.38;;;14.66;100.00
75359;BME280;64046;51.978;5.934;2022-11-04T08:10:16;100403.81;;;14.69;100.00
75359;BME280;64046;51.978;5.934;2022-11-04T08:12:45;100398.09;;;14.76;100.00
75359;BME280;64046;51.978;5.934;2022-11-04T08:15:14;100403.59;;;14.85;100.00
75359;BME280;64046;51.978;5.934;2022-11-04T08:17:43;100417.22;;;14.92;100.00
75359;BME280;64046;51.978;5.934;2022-11-04T08:20:13;100429.25;;;14.96;100.00
75359;BME280;64046;51.978;5.934;2022-11-04T08:22:45;100429.00;;;15.12;100.00
75359;BME280;64046;51.978;5.934;2022-11-04T08:25:14;100432.50;;;15.00;100.00
75359;BME280;64046;51.978;5.934;2022-11-04T08:27:43;100422.81;;;15.00;100.00
75359;BME280;64046;51.978;5.934;2022-11-04T08:30:13;100421.44;;;15.08;100.00
75359;BME280;64046;51.978;5.934;2022-11-04T08:32:42;100432.50;;;15.13;99.94
75359;BME280;64046;51.978;5.934;2022-11-04T08:35:11;100431.44;;;15.15;99.69
75359;BME280;64046;51.978;5.934;2022-11-04T08:37:41;100431.97;;;15.20;99.53
75359;BME280;64046;51.978;5.934;2022-11-04T08:40:12;100434.78;;;15.43;99.13
75359;BME280;64046;51.978;5.934;2022-11-04T08:42:41;100428.25;;;15.36;98.88
75359;BME280;64046;51.978;5.934;2022-11-04T08:45:10;100428.03;;;15.39;98.65
75359;BME280;64046;51.978;5.934;2022-11-04T08:47:40;100444.06;;;15.49;98.46
75359;BME280;64046;51.978;5.934;2022-11-04T08:50:09;100434.34;;;15.49;98.29
75359;BME280;64046;51.978;5.934;2022-11-04T08:52:38;100454.94;;;15.44;98.31
75359;BME280;64046;51.978;5.934;2022-11-04T08:55:08;100447.84;;;15.57;98.36
75359;BME280;64046;51.978;5.934;2022-11-04T08:57:40;100457.22;;;15.62;98.05
75359;BME280;64046;51.978;5.934;2022-11-04T09:00:10;100465.38;;;15.58;98.30
75359;BME280;64046;51.978;5.934;2022-11-04T09:02:41;100466.97;;;15.48;98.23
75359;BME280;64046;51.978;5.934;2022-11-04T09:05:10;100471.31;;;15.49;98.13
75359;BME280;64046;51.978;5.934;2022-11-04T09:07:41;100474.25;;;15.57;98.04
75359;BME280;64046;51.978;5.934;2022-11-04T09:10:11;100472.78;;;15.53;98.22
75359;BME280;64046;51.978;5.934;2022-11-04T09:12:43;100478.88;;;15.80;97.33
75359;BME280;64046;51.978;5.934;2022-11-04T09:15:13;100484.28;;;15.65;97.72
75359;BME280;64046;51.978;5.934;2022-11-04T09:17:42;100479.19;;;15.75;97.24
75359;BME280;64046;51.978;5.934;2022-11-04T09:20:11;100479.81;;;15.79;96.85
75359;BME280;64046;51.978;5.934;2022-11-04T09:22:40;100482.53;;;15.77;97.37
75359;BME280;64046;51.978;5.934;2022-11-04T09:25:10;100488.16;;;15.85;97.11
75359;BME280;64046;51.978;5.934;2022-11-04T09:27:39;100497.56;;;15.77;98.48
75359;BME280;64046;51.978;5.934;2022-11-04T09:30:11;100495.59;;;16.04;97.14
75359;BME280;64046;51.978;5.934;2022-11-04T09:32:41;100498.50;;;15.88;97.27
75359;BME280;64046;51.978;5.934;2022-11-04T09:35:10;100514.34;;;15.88;97.39
75359;BME280;64046;51.978;5.934;2022-11-04T09:37:41;100515.94;;;15.91;97.24
75359;BME280;64046;51.978;5.934;2022-11-04T09:40:14;100507.03;;;16.05;96.05
75359;BME280;64046;51.978;5.934;2022-11-04T09:42:55;100520.84;;;16.08;95.57
75359;BME280;64046;51.978;5.934;2022-11-04T09:45:29;100525.84;;;16.00;96.13
75359;BME280;64046;51.978;5.934;2022-11-04T09:48:02;100526.97;;;15.85;96.93
75359;BME280;64046;51.978;5.934;2022-11-04T09:50:40;100533.06;;;15.98;95.60
75359;BME280;64046;51.978;5.934;2022-11-04T09:53:16;100535.28;;;15.91;95.80
75359;BME280;64046;51.978;5.934;2022-11-04T09:55:50;100540.34;;;15.95;95.81
75359;BME280;64046;51.978;5.934;2022-11-04T09:58:21;100542.81;;;15.85;96.13
75359;BME280;64046;51.978;5.934;2022-11-04T10:00:56;100543.41;;;16.01;95.30
75359;BME280;64046;51.978;5.934;2022-11-04T10:03:43;100548.16;;;16.09;94.46
75359;BME280;64046;51.978;5.934;2022-11-04T10:06:26;100553.53;;;16.07;94.18
75359;BME280;64046;51.978;5.934;2022-11-04T10:09:18;100553.63;;;16.06;93.59
75359;BME280;64046;51.978;5.934;2022-11-04T10:11:59;100552.59;;;15.96;94.53
75359;BME280;64046;51.978;5.934;2022-11-04T10:14:43;100556.19;;;15.95;94.53
75359;BME280;64046;51.978;5.934;2022-11-04T10:17:31;100559.69;;;15.95;94.54
75359;BME280;64046;51.978;5.934;2022-11-04T10:20:17;100551.31;;;16.01;94.01
75359;BME280;64046;51.978;5.934;2022-11-04T10:22:56;100565.94;;;15.94;94.90
75359;BME280;64046;51.978;5.934;2022-11-04T10:25:31;100570.69;;;16.02;95.13
75359;BME280;64046;51.978;5.934;2022-11-04T10:28:04;100567.09;;;15.90;95.59
75359;BME280;64046;51.978;5.934;2022-11-04T10:30:36;100571.00;;;15.97;95.24
75359;BME280;64046;51.978;5.934;2022-11-04T10:33:17;100574.63;;;16.20;94.24
75359;BME280;64046;51.978;5.934;2022-11-04T10:35:51;100571.03;;;16.21;94.68
75359;BME280;64046;51.978;5.934;2022-11-04T10:38:32;100570.16;;;16.34;94.10
75359;BME280;64046;51.978;5.934;2022-11-04T10:41:16;100580.09;;;16.30;94.44
75359;BME280;64046;51.978;5.934;2022-11-04T10:43:48;100584.41;;;16.07;95.70
75359;BME280;64046;51.978;5.934;2022-11-04T10:46:29;100589.72;;;16.31;95.04
75359;BME280;64046;51.978;5.934;2022-11-04T10:49:22;100575.00;;;16.40;94.44
75359;BME280;64046;51.978;5.934;2022-11-04T10:51:54;100581.81;;;16.31;94.85
75359;BME280;64046;51.978;5.934;2022-11-04T10:54:25;100576.06;;;16.37;94.09
75359;BME280;64046;51.978;5.934;2022-11-04T10:56:55;100568.47;;;16.33;93.61
75359;BME280;64046;51.978;5.934;2022-11-04T10:59:26;100567.53;;;16.34;93.39
75359;BME280;64046;51.978;5.934;2022-11-04T11:01:57;100572.28;;;16.29;93.72
75359;BME280;64046;51.978;5.934;2022-11-04T11:04:31;100566.94;;;16.41;93.29
75359;BME280;64046;51.978;5.934;2022-11-04T11:07:03;100566.94;;;16.41;93.03
75359;BME280;64046;51.978;5.934;2022-11-04T11:09:35;100572.34;;;16.40;93.42
75359;BME280;64046;51.978;5.934;2022-11-04T11:12:17;100581.94;;;16.54;92.21
75359;BME280;64046;51.978;5.934;2022-11-04T11:14:51;100575.44;;;16.34;93.38
75359;BME280;64046;51.978;5.934;2022-11-04T11:17:30;100576.19;;;16.60;92.72
75359;BME280;64046;51.978;5.934;2022-11-04T11:20:18;100583.81;;;16.76;91.90
75359;BME280;64046;51.978;5.934;2022-11-04T11:22:48;100583.50;;;16.56;92.42
75359;BME280;64046;51.978;5.934;2022-11-04T11:25:26;100584.16;;;16.71;91.92
75359;BME280;64046;51.978;5.934;2022-11-04T11:27:58;100580.28;;;16.64;92.38
75359;BME280;64046;51.978;5.934;2022-11-04T11:30:30;100582.34;;;16.72;92.50
75359;BME280;64046;51.978;5.934;2022-11-04T11:33:01;100584.88;;;16.73;92.06
75359;BME280;64046;51.978;5.934;2022-11-04T11:35:38;100579.28;;;16.78;91.48
75359;BME280;64046;51.978;5.934;2022-11-04T11:38:17;100583.28;;;16.84;91.24
75359;BME280;64046;51.978;5.934;2022-11-04T11:40:50;100589.88;;;16.78;91.95
75359;BME280;64046;51.978;5.934;2022-11-04T11:43:24;100593.53;;;16.88;91.34
75359;BME280;64046;51.978;5.934;2022-11-04T11:45:55;100599.59;;;16.77;91.45
75359;BME280;64046;51.978;5.934;2022-11-04T11:48:27;100605.28;;;16.84;91.27
75359;BME280;64046;51.978;5.934;2022-11-04T11:50:59;100606.22;;;16.83;90.85
75359;BME280;64046;51.978;5.934;2022-11-04T11:53:29;100598.56;;;16.67;91.25
75359;BME280;64046;51.978;5.934;2022-11-04T11:56:12;100601.00;;;16.94;90.53
75359;BME280;64046;51.978;5.934;2022-11-04T11:58:45;100597.41;;;16.95;90.52
75359;BME280;64046;51.978;5.934;2022-11-04T12:01:20;100603.31;;;16.99;90.11
75359;BME280;64046;51.978;5.934;2022-11-04T12:03:50;100600.66;;;16.88;90.47
75359;BME280;64046;51.978;5.934;2022-11-04T12:06:38;100614.09;;;17.20;88.72
75359;BME280;64046;51.978;5.934;2022-11-04T12:09:22;100618.31;;;17.23;89.23
75359;BME280;64046;51.978;5.934;2022-11-04T12:12:03;100626.03;;;17.26;89.20
75359;BME280;64046;51.978;5.934;2022-11-04T12:14:47;100635.31;;;17.32;88.05
75359;BME280;64046;51.978;5.934;2022-11-04T12:17:31;100635.44;;;17.30;88.16
75359;BME280;64046;51.978;5.934;2022-11-04T12:20:17;100634.97;;;17.36;87.66
75359;BME280;64046;51.978;5.934;2022-11-04T12:22:57;100641.69;;;17.29;87.18
75359;BME280;64046;51.978;5.934;2022-11-04T12:25:34;100643.06;;;17.10;87.90
75359;BME280;64046;51.978;5.934;2022-11-04T12:28:18;100641.41;;;17.09;87.61
75359;BME280;64046;51.978;5.934;2022-11-04T12:30:59;100649.53;;;17.06;88.42
75359;BME280;64046;51.978;5.934;2022-11-04T12:33:34;100651.13;;;17.09;88.34
75359;BME280;64046;51.978;5.934;2022-11-04T12:36:15;100664.91;;;17.25;87.55
75359;BME280;64046;51.978;5.934;2022-11-04T12:42:00;100670.81;;;17.29;86.34
75359;BME280;64046;51.978;5.934;2022-11-04T12:44:37;100668.75;;;17.21;86.93
75359;BME280;64046;51.978;5.934;2022-11-04T12:47:18;100669.69;;;17.20;85.93
75359;BME280;64046;51.978;5.934;2022-11-04T12:53:15;100671.47;;;17.08;85.95
75359;BME280;64046;51.978;5.934;2022-11-04T12:55:51;100672.88;;;17.01;86.59
75359;BME280;64046;51.978;5.934;2022-11-04T12:58:36;100678.00;;;17.16;85.63
75359;BME280;64046;51.978;5.934;2022-11-04T13:01:10;100671.34;;;17.10;85.98
75359;BME280;64046;51.978;5.934;2022-11-04T13:03:47;100672.06;;;17.12;85.79
75359;BME280;64046;51.978;5.934;2022-11-04T13:06:22;100671.69;;;17.05;85.87
75359;BME280;64046;51.978;5.934;2022-11-04T13:08:56;100674.50;;;17.15;86.09
75359;BME280;64046;51.978;5.934;2022-11-04T13:11:30;100679.47;;;17.20;85.63
75359;BME280;64046;51.978;5.934;2022-11-04T13:14:07;100675.41;;;17.27;85.12
75359;BME280;64046;51.978;5.934;2022-11-04T13:16:44;100679.34;;;17.21;85.27
75359;BME280;64046;51.978;5.934;2022-11-04T13:19:21;100686.00;;;17.27;85.27
75359;BME280;64046;51.978;5.934;2022-11-04T13:21:55;100689.09;;;17.21;85.57
75359;BME280;64046;51.978;5.934;2022-11-04T13:24:27;100697.41;;;17.27;85.52
75359;BME280;64046;51.978;5.934;2022-11-04T13:26:59;100695.72;;;17.26;85.02
75359;BME280;64046;51.978;5.934;2022-11-04T13:29:33;100705.25;;;17.29;84.83